sensor_id;sensor_type;location;lat;lon;timestamp;P1;durP1;ratioP1;P2;durP2;ratioP2
55672;SDS011;41554;45.366;20.400;2023-06-26T00:01:23;9.95;;;5.55;;
55672;SDS011;41554;45.366;20.400;2023-06-26T00:03:49;7.28;;;5.25;;
55672;SDS011;41554;45.366;20.400;2023-06-26T00:06:15;10.10;;;5.97;;
55672;SDS011;41554;45.366;20.400;2023-06-26T00:08:41;19.08;;;6.18;;
55672;SDS011;41554;45.366;20.400;2023-06-26T00:11:08;7.45;;;5.07;;
55672;SDS011;41554;45.366;20.400;2023-06-26T00:13:34;7.10;;;5.85;;
55672;SDS011;41554;45.366;20.400;2023-06-26T00:16:00;8.50;;;4.78;;
55672;SDS011;41554;45.366;20.400;2023-06-26T00:18:28;7.18;;;5.30;;
55672;SDS011;41554;45.366;20.400;2023-06-26T00:20:54;7.45;;;5.25;;
55672;SDS011;41554;45.366;20.400;2023-06-26T00:23:20;12.55;;;5.55;;
55672;SDS011;41554;45.366;20.400;2023-06-26T00:25:46;6.22;;;4.97;;
55672;SDS011;41554;45.366;20.400;2023-06-26T00:28:12;7.95;;;5.10;;
55672;SDS011;41554;45.366;20.400;2023-06-26T00:30:38;12.20;;;5.65;;
55672;SDS011;41554;45.366;20.400;2023-06-26T00:33:04;10.65;;;5.38;;
55672;SDS011;41554;45.366;20.400;2023-06-26T00:35:31;8.27;;;5.20;;
55672;SDS011;41554;45.366;20.400;2023-06-26T00:37:57;7.93;;;5.18;;
55672;SDS011;41554;45.366;20.400;2023-06-26T00:40:23;7.05;;;4.65;;
55672;SDS011;41554;45.366;20.400;2023-06-26T00:42:49;8.05;;;5.60;;
55672;SDS011;41554;45.366;20.400;2023-06-26T00:45:15;7.10;;;4.72;;
55672;SDS011;41554;45.366;20.400;2023-06-26T00:47:41;5.93;;;4.68;;
55672;SDS011;41554;45.366;20.400;2023-06-26T00:50:07;15.00;;;5.70;;
55672;SDS011;41554;45.366;20.400;2023-06-26T00:52:34;8.98;;;4.88;;
55672;SDS011;41554;45.366;20.400;2023-06-26T00:55:00;11.20;;;6.07;;
55672;SDS011;41554;45.366;20.400;2023-06-26T00:57:26;6.68;;;4.95;;
55672;SDS011;41554;45.366;20.400;2023-06-26T00:59:52;8.63;;;5.28;;
55672;SDS011;41554;45.366;20.400;2023-06-26T01:02:18;7.05;;;5.13;;
55672;SDS011;41554;45.366;20.400;2023-06-26T01:04:48;7.87;;;5.07;;
55672;SDS011;41554;45.366;20.400;2023-06-26T01:07:15;11.10;;;4.65;;
55672;SDS011;41554;45.366;20.400;2023-06-26T01:09:43;10.43;;;6.90;;
55672;SDS011;41554;45.366;20.400;2023-06-26T01:12:10;8.77;;;5.03;;
55672;SDS011;41554;45.366;20.400;2023-06-26T01:14:36;8.90;;;5.28;;
55672;SDS011;41554;45.366;20.400;2023-06-26T01:17:02;12.32;;;5.05;;
55672;SDS011;41554;45.366;20.400;2023-06-26T01:19:30;7.03;;;5.18;;
55672;SDS011;41554;45.366;20.400;2023-06-26T01:22:00;8.48;;;6.15;;
55672;SDS011;41554;45.366;20.400;2023-06-26T01:26:54;9.02;;;7.20;;
55672;SDS011;41554;45.366;20.400;2023-06-26T01:29:20;8.60;;;5.35;;
55672;SDS011;41554;45.366;20.400;2023-06-26T01:31:48;9.63;;;6.97;;
55672;SDS011;41554;45.366;20.400;2023-06-26T01:34:17;11.00;;;6.78;;
55672;SDS011;41554;45.366;20.400;2023-06-26T01:36:44;9.43;;;5.43;;
55672;SDS011;41554;45.366;20.400;2023-06-26T01:39:12;13.35;;;7.07;;
55672;SDS011;41554;45.366;20.400;2023-06-26T01:41:38;7.93;;;5.90;;
55672;SDS011;41554;45.366;20.400;2023-06-26T01:54:42;12.80;;;6.95;;
55672;SDS011;41554;45.366;20.400;2023-06-26T01:57:13;9.40;;;7.13;;
55672;SDS011;41554;45.366;20.400;2023-06-26T01:59:39;8.90;;;6.60;;
55672;SDS011;41554;45.366;20.400;2023-06-26T02:02:07;7.80;;;5.90;;
55672;SDS011;41554;45.366;20.400;2023-06-26T02:04:33;9.10;;;6.53;;
55672;SDS011;41554;45.366;20.400;2023-06-26T02:06:59;12.23;;;6.63;;
55672;SDS011;41554;45.366;20.400;2023-06-26T02:09:26;18.65;;;7.03;;
55672;SDS011;41554;45.366;20.400;2023-06-26T02:11:52;10.70;;;8.18;;
55672;SDS011;41554;45.366;20.400;2023-06-26T02:14:18;15.18;;;7.43;;
55672;SDS011;41554;45.366;20.400;2023-06-26T02:16:44;14.60;;;6.95;;
55672;SDS011;41554;45.366;20.400;2023-06-26T02:19:10;9.15;;;6.75;;
55672;SDS011;41554;45.366;20.400;2023-06-26T02:21:36;8.70;;;6.13;;
55672;SDS011;41554;45.366;20.400;2023-06-26T02:24:03;10.77;;;8.27;;
55672;SDS011;41554;45.366;20.400;2023-06-26T02:26:29;7.68;;;6.80;;
55672;SDS011;41554;45.366;20.400;2023-06-26T02:28:55;10.55;;;8.07;;
55672;SDS011;41554;45.366;20.400;2023-06-26T02:31:21;10.70;;;6.93;;
55672;SDS011;41554;45.366;20.400;2023-06-26T02:33:48;10.32;;;7.55;;
55672;SDS011;41554;45.366;20.400;2023-06-26T02:36:14;11.23;;;7.53;;
55672;SDS011;41554;45.366;20.400;2023-06-26T02:38:40;14.00;;;7.55;;
55672;SDS011;41554;45.366;20.400;2023-06-26T02:41:06;10.20;;;7.13;;
55672;SDS011;41554;45.366;20.400;2023-06-26T02:43:32;16.25;;;9.20;;
55672;SDS011;41554;45.366;20.400;2023-06-26T02:45:58;9.88;;;7.90;;
55672;SDS011;41554;45.366;20.400;2023-06-26T02:48:24;22.38;;;11.02;;
55672;SDS011;41554;45.366;20.400;2023-06-26T02:50:51;12.75;;;8.75;;
55672;SDS011;41554;45.366;20.400;2023-06-26T02:53:17;11.98;;;9.07;;
55672;SDS011;41554;45.366;20.400;2023-06-26T02:55:43;10.73;;;8.25;;
55672;SDS011;41554;45.366;20.400;2023-06-26T02:58:09;13.45;;;8.45;;
55672;SDS011;41554;45.366;20.400;2023-06-26T03:00:35;12.73;;;8.18;;
55672;SDS011;41554;45.366;20.400;2023-06-26T03:03:06;12.20;;;9.23;;
55672;SDS011;41554;45.366;20.400;2023-06-26T03:05:32;9.15;;;8.00;;
55672;SDS011;41554;45.366;20.400;2023-06-26T03:07:58;11.73;;;7.88;;
55672;SDS011;41554;45.366;20.400;2023-06-26T03:10:24;11.30;;;9.20;;
55672;SDS011;41554;45.366;20.400;2023-06-26T03:12:50;14.82;;;9.00;;
55672;SDS011;41554;45.366;20.400;2023-06-26T03:15:16;11.02;;;8.40;;
55672;SDS011;41554;45.366;20.400;2023-06-26T03:17:42;12.20;;;9.10;;
55672;SDS011;41554;45.366;20.400;2023-06-26T03:20:08;18.15;;;9.35;;
55672;SDS011;41554;45.366;20.400;2023-06-26T03:22:35;13.40;;;8.38;;
55672;SDS011;41554;45.366;20.400;2023-06-26T03:25:02;16.98;;;10.00;;
55672;SDS011;41554;45.366;20.400;2023-06-26T03:27:28;12.32;;;8.27;;
55672;SDS011;41554;45.366;20.400;2023-06-26T03:29:54;14.60;;;9.40;;
55672;SDS011;41554;45.366;20.400;2023-06-26T03:32:20;13.98;;;9.57;;
55672;SDS011;41554;45.366;20.400;2023-06-26T03:34:46;13.23;;;9.55;;
55672;SDS011;41554;45.366;20.400;2023-06-26T03:37:12;12.68;;;9.82;;
55672;SDS011;41554;45.366;20.400;2023-06-26T03:39:38;13.35;;;10.38;;
55672;SDS011;41554;45.366;20.400;2023-06-26T03:42:04;11.25;;;8.35;;
55672;SDS011;41554;45.366;20.400;2023-06-26T03:44:30;11.98;;;9.50;;
55672;SDS011;41554;45.366;20.400;2023-06-26T03:46:56;11.68;;;7.97;;
55672;SDS011;41554;45.366;20.400;2023-06-26T03:49:22;14.07;;;10.02;;
55672;SDS011;41554;45.366;20.400;2023-06-26T03:51:48;15.90;;;10.10;;
55672;SDS011;41554;45.366;20.400;2023-06-26T03:54:15;12.38;;;9.88;;
55672;SDS011;41554;45.366;20.400;2023-06-26T03:56:41;16.48;;;10.63;;
55672;SDS011;41554;45.366;20.400;2023-06-26T03:59:07;18.02;;;11.75;;
55672;SDS011;41554;45.366;20.400;2023-06-26T04:01:33;15.85;;;11.15;;
55672;SDS011;41554;45.366;20.400;2023-06-26T04:04:01;11.57;;;9.85;;
55672;SDS011;41554;45.366;20.400;2023-06-26T04:06:28;13.07;;;9.63;;
55672;SDS011;41554;45.366;20.400;2023-06-26T04:08:56;13.25;;;9.80;;
55672;SDS011;41554;45.366;20.400;2023-06-26T04:11:22;14.27;;;10.40;;
55672;SDS011;41554;45.366;20.400;2023-06-26T04:13:49;14.32;;;10.85;;
55672;SDS011;41554;45.366;20.400;2023-06-26T04:16:15;16.63;;;11.35;;
55672;SDS011;41554;45.366;20.400;2023-06-26T04:18:41;17.33;;;10.63;;
55672;SDS011;41554;45.366;20.400;2023-06-26T04:21:13;13.70;;;10.45;;
55672;SDS011;41554;45.366;20.400;2023-06-26T04:23:39;18.77;;;11.70;;
55672;SDS011;41554;45.366;20.400;2023-06-26T04:26:06;17.58;;;12.55;;
55672;SDS011;41554;45.366;20.400;2023-06-26T04:28:33;21.08;;;13.02;;
55672;SDS011;41554;45.366;20.400;2023-06-26T04:30:59;15.90;;;10.80;;
55672;SDS011;41554;45.366;20.400;2023-06-26T04:33:25;13.73;;;10.25;;
55672;SDS011;41554;45.366;20.400;2023-06-26T04:35:52;12.30;;;10.52;;
55672;SDS011;41554;45.366;20.400;2023-06-26T04:38:18;15.05;;;12.00;;
55672;SDS011;41554;45.366;20.400;2023-06-26T04:40:44;15.60;;;10.57;;
55672;SDS011;41554;45.366;20.400;2023-06-26T04:43:10;12.85;;;10.55;;
55672;SDS011;41554;45.366;20.400;2023-06-26T04:45:36;19.20;;;12.80;;
55672;SDS011;41554;45.366;20.400;2023-06-26T04:48:02;13.77;;;12.10;;
55672;SDS011;41554;45.366;20.400;2023-06-26T04:50:30;15.98;;;11.48;;
55672;SDS011;41554;45.366;20.400;2023-06-26T04:52:56;13.05;;;11.35;;
55672;SDS011;41554;45.366;20.400;2023-06-26T04:55:25;15.63;;;12.43;;
55672;SDS011;41554;45.366;20.400;2023-06-26T04:57:51;19.70;;;12.27;;
55672;SDS011;41554;45.366;20.400;2023-06-26T05:00:17;15.43;;;11.48;;
55672;SDS011;41554;45.366;20.400;2023-06-26T05:02:43;18.85;;;13.25;;
55672;SDS011;41554;45.366;20.400;2023-06-26T05:05:10;15.52;;;11.85;;
55672;SDS011;41554;45.366;20.400;2023-06-26T05:07:36;13.10;;;11.70;;
55672;SDS011;41554;45.366;20.400;2023-06-26T05:10:02;16.77;;;10.43;;
55672;SDS011;41554;45.366;20.400;2023-06-26T05:12:28;15.82;;;12.15;;
55672;SDS011;41554;45.366;20.400;2023-06-26T05:14:54;19.98;;;11.88;;
55672;SDS011;41554;45.366;20.400;2023-06-26T05:17:20;13.70;;;11.10;;
55672;SDS011;41554;45.366;20.400;2023-06-26T05:19:46;17.35;;;11.98;;
55672;SDS011;41554;45.366;20.400;2023-06-26T05:22:12;11.32;;;9.80;;
55672;SDS011;41554;45.366;20.400;2023-06-26T05:24:39;13.93;;;9.73;;
55672;SDS011;41554;45.366;20.400;2023-06-26T05:27:05;12.90;;;9.63;;
55672;SDS011;41554;45.366;20.400;2023-06-26T05:29:32;14.18;;;12.20;;
55672;SDS011;41554;45.366;20.400;2023-06-26T05:31:59;15.95;;;12.02;;
55672;SDS011;41554;45.366;20.400;2023-06-26T05:34:25;11.63;;;9.77;;
55672;SDS011;41554;45.366;20.400;2023-06-26T05:36:55;13.43;;;9.43;;
55672;SDS011;41554;45.366;20.400;2023-06-26T05:39:23;14.73;;;10.98;;
55672;SDS011;41554;45.366;20.400;2023-06-26T05:41:49;15.95;;;11.25;;
55672;SDS011;41554;45.366;20.400;2023-06-26T05:44:16;14.35;;;9.75;;
55672;SDS011;41554;45.366;20.400;2023-06-26T05:46:42;17.73;;;10.95;;
55672;SDS011;41554;45.366;20.400;2023-06-26T05:49:08;14.63;;;10.10;;
55672;SDS011;41554;45.366;20.400;2023-06-26T05:51:34;15.20;;;11.75;;
55672;SDS011;41554;45.366;20.400;2023-06-26T05:54:00;10.32;;;9.18;;
55672;SDS011;41554;45.366;20.400;2023-06-26T05:56:26;14.23;;;9.45;;
55672;SDS011;41554;45.366;20.400;2023-06-26T05:58:53;11.88;;;9.27;;
55672;SDS011;41554;45.366;20.400;2023-06-26T06:01:19;10.60;;;8.32;;
55672;SDS011;41554;45.366;20.400;2023-06-26T06:03:45;14.52;;;9.75;;
55672;SDS011;41554;45.366;20.400;2023-06-26T06:06:12;9.82;;;8.55;;
55672;SDS011;41554;45.366;20.400;2023-06-26T06:08:38;8.90;;;7.93;;
55672;SDS011;41554;45.366;20.400;2023-06-26T06:11:04;8.95;;;7.80;;
55672;SDS011;41554;45.366;20.400;2023-06-26T06:13:30;10.40;;;9.25;;
55672;SDS011;41554;45.366;20.400;2023-06-26T06:15:56;14.45;;;9.63;;
55672;SDS011;41554;45.366;20.400;2023-06-26T06:18:22;9.73;;;7.53;;
55672;SDS011;41554;45.366;20.400;2023-06-26T06:20:48;16.98;;;8.85;;
55672;SDS011;41554;45.366;20.400;2023-06-26T06:23:14;9.30;;;8.02;;
55672;SDS011;41554;45.366;20.400;2023-06-26T06:25:40;10.95;;;8.23;;
55672;SDS011;41554;45.366;20.400;2023-06-26T06:28:06;10.98;;;7.75;;
55672;SDS011;41554;45.366;20.400;2023-06-26T06:30:32;11.15;;;6.93;;
55672;SDS011;41554;45.366;20.400;2023-06-26T06:32:58;8.90;;;7.38;;
55672;SDS011;41554;45.366;20.400;2023-06-26T06:35:24;20.63;;;9.05;;
55672;SDS011;41554;45.366;20.400;2023-06-26T06:37:50;10.18;;;8.43;;
55672;SDS011;41554;45.366;20.400;2023-06-26T06:40:16;13.98;;;9.27;;
55672;SDS011;41554;45.366;20.400;2023-06-26T06:42:42;11.10;;;7.78;;
55672;SDS011;41554;45.366;20.400;2023-06-26T06:45:09;10.05;;;7.28;;
55672;SDS011;41554;45.366;20.400;2023-06-26T06:47:35;11.00;;;7.38;;
55672;SDS011;41554;45.366;20.400;2023-06-26T06:50:01;9.90;;;7.28;;
55672;SDS011;41554;45.366;20.400;2023-06-26T06:52:36;12.95;;;7.53;;
55672;SDS011;41554;45.366;20.400;2023-06-26T06:55:03;9.68;;;7.75;;
55672;SDS011;41554;45.366;20.400;2023-06-26T06:57:30;11.68;;;8.27;;
55672;SDS011;41554;45.366;20.400;2023-06-26T07:00:00;9.98;;;6.78;;
55672;SDS011;41554;45.366;20.400;2023-06-26T07:02:27;10.57;;;7.53;;
55672;SDS011;41554;45.366;20.400;2023-06-26T07:04:53;8.60;;;7.45;;
55672;SDS011;41554;45.366;20.400;2023-06-26T07:07:19;10.77;;;8.02;;
55672;SDS011;41554;45.366;20.400;2023-06-26T07:09:45;11.82;;;7.00;;
55672;SDS011;41554;45.366;20.400;2023-06-26T07:12:11;10.63;;;7.40;;
55672;SDS011;41554;45.366;20.400;2023-06-26T07:14:38;9.50;;;7.25;;
55672;SDS011;41554;45.366;20.400;2023-06-26T07:17:04;12.23;;;7.82;;
55672;SDS011;41554;45.366;20.400;2023-06-26T07:19:30;9.82;;;6.85;;
55672;SDS011;41554;45.366;20.400;2023-06-26T07:21:56;9.20;;;6.35;;
55672;SDS011;41554;45.366;20.400;2023-06-26T07:24:22;8.45;;;6.00;;
55672;SDS011;41554;45.366;20.400;2023-06-26T07:26:48;14.65;;;6.68;;
55672;SDS011;41554;45.366;20.400;2023-06-26T07:29:14;9.30;;;6.30;;
55672;SDS011;41554;45.366;20.400;2023-06-26T07:31:40;8.23;;;6.93;;
55672;SDS011;41554;45.366;20.400;2023-06-26T07:34:07;9.23;;;7.10;;
55672;SDS011;41554;45.366;20.400;2023-06-26T07:36:33;11.07;;;6.35;;
55672;SDS011;41554;45.366;20.400;2023-06-26T07:38:59;9.00;;;6.03;;
55672;SDS011;41554;45.366;20.400;2023-06-26T07:41:25;15.15;;;7.18;;
55672;SDS011;41554;45.366;20.400;2023-06-26T07:43:51;18.48;;;9.20;;
55672;SDS011;41554;45.366;20.400;2023-06-26T07:46:17;10.05;;;7.43;;
55672;SDS011;41554;45.366;20.400;2023-06-26T07:48:43;20.95;;;8.52;;
55672;SDS011;41554;45.366;20.400;2023-06-26T07:51:09;8.38;;;6.10;;
55672;SDS011;41554;45.366;20.400;2023-06-26T07:53:35;11.05;;;6.45;;
55672;SDS011;41554;45.366;20.400;2023-06-26T07:56:01;7.72;;;6.13;;
55672;SDS011;41554;45.366;20.400;2023-06-26T07:58:27;8.30;;;5.97;;
55672;SDS011;41554;45.366;20.400;2023-06-26T08:00:53;7.80;;;6.65;;
55672;SDS011;41554;45.366;20.400;2023-06-26T08:03:19;10.27;;;6.97;;
55672;SDS011;41554;45.366;20.400;2023-06-26T08:05:45;7.85;;;5.75;;
55672;SDS011;41554;45.366;20.400;2023-06-26T08:08:11;8.98;;;5.97;;
55672;SDS011;41554;45.366;20.400;2023-06-26T08:10:37;11.80;;;7.57;;
55672;SDS011;41554;45.366;20.400;2023-06-26T08:13:03;11.93;;;7.35;;
55672;SDS011;41554;45.366;20.400;2023-06-26T08:15:29;7.90;;;5.95;;
55672;SDS011;41554;45.366;20.400;2023-06-26T08:17:55;14.40;;;6.07;;
55672;SDS011;41554;45.366;20.400;2023-06-26T08:20:21;7.18;;;5.53;;
55672;SDS011;41554;45.366;20.400;2023-06-26T08:22:47;8.30;;;6.22;;
55672;SDS011;41554;45.366;20.400;2023-06-26T08:25:16;9.70;;;6.22;;
55672;SDS011;41554;45.366;20.400;2023-06-26T08:27:42;7.60;;;5.75;;
55672;SDS011;41554;45.366;20.400;2023-06-26T08:30:08;6.35;;;5.35;;
55672;SDS011;41554;45.366;20.400;2023-06-26T08:32:34;8.05;;;6.07;;
55672;SDS011;41554;45.366;20.400;2023-06-26T08:35:00;8.93;;;6.10;;
55672;SDS011;41554;45.366;20.400;2023-06-26T08:37:27;6.75;;;5.40;;
55672;SDS011;41554;45.366;20.400;2023-06-26T08:39:53;6.78;;;5.93;;
55672;SDS011;41554;45.366;20.400;2023-06-26T08:42:19;14.20;;;6.28;;
55672;SDS011;41554;45.366;20.400;2023-06-26T08:44:45;7.10;;;5.70;;
55672;SDS011;41554;45.366;20.400;2023-06-26T08:47:11;13.70;;;6.00;;
55672;SDS011;41554;45.366;20.400;2023-06-26T08:49:43;5.68;;;4.97;;
55672;SDS011;41554;45.366;20.400;2023-06-26T08:52:35;9.35;;;5.65;;
55672;SDS011;41554;45.366;20.400;2023-06-26T08:54:59;8.18;;;6.13;;
55672;SDS011;41554;45.366;20.400;2023-06-26T08:57:27;9.75;;;6.85;;
55672;SDS011;41554;45.366;20.400;2023-06-26T08:59:54;11.93;;;6.40;;
55672;SDS011;41554;45.366;20.400;2023-06-26T09:02:20;8.30;;;4.45;;
55672;SDS011;41554;45.366;20.400;2023-06-26T09:04:47;9.07;;;5.88;;
55672;SDS011;41554;45.366;20.400;2023-06-26T09:07:14;7.43;;;6.03;;
55672;SDS011;41554;45.366;20.400;2023-06-26T09:09:40;7.10;;;4.60;;
55672;SDS011;41554;45.366;20.400;2023-06-26T09:12:06;9.55;;;6.07;;
55672;SDS011;41554;45.366;20.400;2023-06-26T09:14:34;6.88;;;5.35;;
55672;SDS011;41554;45.366;20.400;2023-06-26T09:17:00;7.85;;;5.80;;
55672;SDS011;41554;45.366;20.400;2023-06-26T09:19:27;6.80;;;5.07;;
55672;SDS011;41554;45.366;20.400;2023-06-26T09:21:53;6.97;;;5.65;;
55672;SDS011;41554;45.366;20.400;2023-06-26T09:24:20;7.30;;;5.68;;
55672;SDS011;41554;45.366;20.400;2023-06-26T09:26:47;11.13;;;5.35;;
55672;SDS011;41554;45.366;20.400;2023-06-26T09:29:13;5.90;;;4.78;;
55672;SDS011;41554;45.366;20.400;2023-06-26T09:31:40;5.65;;;4.18;;
55672;SDS011;41554;45.366;20.400;2023-06-26T09:34:06;8.70;;;6.05;;
55672;SDS011;41554;45.366;20.400;2023-06-26T09:36:32;7.53;;;5.85;;
55672;SDS011;41554;45.366;20.400;2023-06-26T09:39:00;7.93;;;5.88;;
55672;SDS011;41554;45.366;20.400;2023-06-26T09:41:26;16.48;;;5.53;;
55672;SDS011;41554;45.366;20.400;2023-06-26T09:43:53;8.23;;;6.38;;
55672;SDS011;41554;45.366;20.400;2023-06-26T09:46:26;11.93;;;6.70;;
55672;SDS011;41554;45.366;20.400;2023-06-26T09:49:00;8.70;;;5.82;;
55672;SDS011;41554;45.366;20.400;2023-06-26T09:51:26;8.27;;;5.38;;
55672;SDS011;41554;45.366;20.400;2023-06-26T09:53:55;7.85;;;5.20;;
55672;SDS011;41554;45.366;20.400;2023-06-26T09:56:21;7.28;;;4.85;;
55672;SDS011;41554;45.366;20.400;2023-06-26T09:58:47;7.32;;;4.78;;
55672;SDS011;41554;45.366;20.400;2023-06-26T10:01:14;6.80;;;5.03;;
55672;SDS011;41554;45.366;20.400;2023-06-26T10:03:40;7.95;;;5.03;;
55672;SDS011;41554;45.366;20.400;2023-06-26T10:06:07;7.45;;;5.00;;
55672;SDS011;41554;45.366;20.400;2023-06-26T10:08:34;9.35;;;5.00;;
55672;SDS011;41554;45.366;20.400;2023-06-26T10:11:02;8.25;;;5.10;;
55672;SDS011;41554;45.366;20.400;2023-06-26T10:13:30;6.75;;;4.78;;
55672;SDS011;41554;45.366;20.400;2023-06-26T10:15:57;5.78;;;4.75;;
55672;SDS011;41554;45.366;20.400;2023-06-26T10:18:25;5.97;;;4.15;;
55672;SDS011;41554;45.366;20.400;2023-06-26T10:20:51;7.18;;;4.65;;
55672;SDS011;41554;45.366;20.400;2023-06-26T10:23:19;8.40;;;4.47;;
55672;SDS011;41554;45.366;20.400;2023-06-26T10:25:46;5.90;;;5.25;;
55672;SDS011;41554;45.366;20.400;2023-06-26T10:28:14;8.27;;;5.13;;
55672;SDS011;41554;45.366;20.400;2023-06-26T10:30:40;6.25;;;4.90;;
55672;SDS011;41554;45.366;20.400;2023-06-26T10:33:07;8.40;;;5.03;;
55672;SDS011;41554;45.366;20.400;2023-06-26T10:35:34;6.10;;;5.03;;
55672;SDS011;41554;45.366;20.400;2023-06-26T10:38:06;7.45;;;5.07;;
55672;SDS011;41554;45.366;20.400;2023-06-26T10:40:42;5.15;;;4.28;;
55672;SDS011;41554;45.366;20.400;2023-06-26T10:43:10;6.03;;;4.55;;
55672;SDS011;41554;45.366;20.400;2023-06-26T10:45:37;11.73;;;5.57;;
55672;SDS011;41554;45.366;20.400;2023-06-26T10:48:08;9.90;;;5.43;;
55672;SDS011;41554;45.366;20.400;2023-06-26T10:50:34;11.63;;;5.20;;
55672;SDS011;41554;45.366;20.400;2023-06-26T10:53:09;7.97;;;5.20;;
55672;SDS011;41554;45.366;20.400;2023-06-26T10:55:36;5.63;;;4.78;;
55672;SDS011;41554;45.366;20.400;2023-06-26T10:58:02;7.25;;;4.97;;
55672;SDS011;41554;45.366;20.400;2023-06-26T11:00:28;7.65;;;5.07;;
55672;SDS011;41554;45.366;20.400;2023-06-26T11:02:55;7.68;;;4.88;;
55672;SDS011;41554;45.366;20.400;2023-06-26T11:05:25;6.72;;;4.43;;
55672;SDS011;41554;45.366;20.400;2023-06-26T11:08:04;7.65;;;4.95;;
55672;SDS011;41554;45.366;20.400;2023-06-26T11:10:47;6.85;;;5.05;;
55672;SDS011;41554;45.366;20.400;2023-06-26T11:13:13;6.72;;;4.72;;
55672;SDS011;41554;45.366;20.400;2023-06-26T11:15:42;6.25;;;4.85;;
55672;SDS011;41554;45.366;20.400;2023-06-26T11:20:35;5.88;;;4.80;;
55672;SDS011;41554;45.366;20.400;2023-06-26T11:23:01;9.00;;;5.63;;
55672;SDS011;41554;45.366;20.400;2023-06-26T11:25:34;8.02;;;5.82;;
55672;SDS011;41554;45.366;20.400;2023-06-26T11:28:00;6.20;;;4.15;;
55672;SDS011;41554;45.366;20.400;2023-06-26T11:30:26;9.32;;;6.03;;
55672;SDS011;41554;45.366;20.400;2023-06-26T11:32:53;7.60;;;5.78;;
55672;SDS011;41554;45.366;20.400;2023-06-26T11:35:25;18.73;;;5.53;;
55672;SDS011;41554;45.366;20.400;2023-06-26T11:37:55;6.03;;;4.35;;
55672;SDS011;41554;45.366;20.400;2023-06-26T11:40:23;7.03;;;5.10;;
55672;SDS011;41554;45.366;20.400;2023-06-26T11:42:55;6.82;;;4.82;;
55672;SDS011;41554;45.366;20.400;2023-06-26T11:45:21;6.80;;;4.88;;
55672;SDS011;41554;45.366;20.400;2023-06-26T11:47:47;5.03;;;3.63;;
55672;SDS011;41554;45.366;20.400;2023-06-26T11:50:15;6.30;;;4.95;;
55672;SDS011;41554;45.366;20.400;2023-06-26T11:52:44;10.75;;;5.57;;
55672;SDS011;41554;45.366;20.400;2023-06-26T11:55:10;7.85;;;5.97;;
55672;SDS011;41554;45.366;20.400;2023-06-26T11:57:37;9.80;;;5.88;;
55672;SDS011;41554;45.366;20.400;2023-06-26T12:00:15;6.40;;;4.85;;
55672;SDS011;41554;45.366;20.400;2023-06-26T12:02:42;7.50;;;4.45;;
55672;SDS011;41554;45.366;20.400;2023-06-26T12:05:08;8.52;;;5.90;;
55672;SDS011;41554;45.366;20.400;2023-06-26T12:07:34;6.13;;;4.90;;
55672;SDS011;41554;45.366;20.400;2023-06-26T12:10:02;7.88;;;5.10;;
55672;SDS011;41554;45.366;20.400;2023-06-26T12:12:28;7.80;;;4.82;;
55672;SDS011;41554;45.366;20.400;2023-06-26T12:14:54;9.60;;;5.53;;
55672;SDS011;41554;45.366;20.400;2023-06-26T12:17:22;5.78;;;4.43;;
55672;SDS011;41554;45.366;20.400;2023-06-26T12:19:50;6.28;;;5.15;;
55672;SDS011;41554;45.366;20.400;2023-06-26T12:22:16;5.38;;;4.75;;
55672;SDS011;41554;45.366;20.400;2023-06-26T12:24:43;6.82;;;5.68;;
55672;SDS011;41554;45.366;20.400;2023-06-26T12:27:09;8.02;;;5.38;;
55672;SDS011;41554;45.366;20.400;2023-06-26T12:29:37;7.07;;;5.05;;
55672;SDS011;41554;45.366;20.400;2023-06-26T12:32:04;7.07;;;4.65;;
55672;SDS011;41554;45.366;20.400;2023-06-26T12:34:34;6.10;;;5.32;;
55672;SDS011;41554;45.366;20.400;2023-06-26T12:37:01;7.65;;;5.18;;
55672;SDS011;41554;45.366;20.400;2023-06-26T12:39:28;5.30;;;4.20;;
55672;SDS011;41554;45.366;20.400;2023-06-26T12:42:00;8.88;;;5.28;;
55672;SDS011;41554;45.366;20.400;2023-06-26T12:44:27;7.82;;;5.80;;
55672;SDS011;41554;45.366;20.400;2023-06-26T12:47:00;7.88;;;5.65;;
55672;SDS011;41554;45.366;20.400;2023-06-26T12:49:30;5.93;;;4.72;;
55672;SDS011;41554;45.366;20.400;2023-06-26T12:51:57;7.68;;;5.68;;
55672;SDS011;41554;45.366;20.400;2023-06-26T12:54:23;6.22;;;4.47;;
55672;SDS011;41554;45.366;20.400;2023-06-26T12:56:50;6.82;;;4.72;;
55672;SDS011;41554;45.366;20.400;2023-06-26T12:59:16;8.35;;;5.93;;
55672;SDS011;41554;45.366;20.400;2023-06-26T13:01:42;9.82;;;4.90;;
55672;SDS011;41554;45.366;20.400;2023-06-26T13:04:08;14.85;;;5.28;;
55672;SDS011;41554;45.366;20.400;2023-06-26T13:06:35;7.18;;;5.60;;
55672;SDS011;41554;45.366;20.400;2023-06-26T13:09:02;6.28;;;4.75;;
55672;SDS011;41554;45.366;20.400;2023-06-26T13:13:57;6.72;;;4.43;;
55672;SDS011;41554;45.366;20.400;2023-06-26T13:16:23;6.75;;;4.80;;
55672;SDS011;41554;45.366;20.400;2023-06-26T13:18:49;7.53;;;5.03;;
55672;SDS011;41554;45.366;20.400;2023-06-26T13:21:15;6.45;;;4.28;;
55672;SDS011;41554;45.366;20.400;2023-06-26T13:23:42;9.23;;;4.55;;
55672;SDS011;41554;45.366;20.400;2023-06-26T13:26:09;6.57;;;4.85;;
55672;SDS011;41554;45.366;20.400;2023-06-26T13:28:35;7.55;;;5.70;;
55672;SDS011;41554;45.366;20.400;2023-06-26T13:31:02;7.28;;;5.43;;
55672;SDS011;41554;45.366;20.400;2023-06-26T13:33:28;5.22;;;4.72;;
55672;SDS011;41554;45.366;20.400;2023-06-26T13:35:54;5.53;;;4.63;;
55672;SDS011;41554;45.366;20.400;2023-06-26T13:38:20;9.95;;;6.28;;
55672;SDS011;41554;45.366;20.400;2023-06-26T13:43:15;9.80;;;6.40;;
55672;SDS011;41554;45.366;20.400;2023-06-26T13:45:41;8.05;;;5.82;;
55672;SDS011;41554;45.366;20.400;2023-06-26T13:48:07;9.32;;;6.93;;
55672;SDS011;41554;45.366;20.400;2023-06-26T13:50:33;9.43;;;5.90;;
55672;SDS011;41554;45.366;20.400;2023-06-26T13:52:59;7.00;;;5.30;;
55672;SDS011;41554;45.366;20.400;2023-06-26T13:55:27;11.50;;;6.72;;
55672;SDS011;41554;45.366;20.400;2023-06-26T13:57:53;7.90;;;4.80;;
55672;SDS011;41554;45.366;20.400;2023-06-26T14:00:19;11.07;;;6.35;;
55672;SDS011;41554;45.366;20.400;2023-06-26T14:02:46;7.22;;;5.45;;
55672;SDS011;41554;45.366;20.400;2023-06-26T14:05:12;9.73;;;5.97;;
55672;SDS011;41554;45.366;20.400;2023-06-26T14:07:39;8.60;;;6.18;;
55672;SDS011;41554;45.366;20.400;2023-06-26T14:10:05;7.20;;;5.25;;
55672;SDS011;41554;45.366;20.400;2023-06-26T14:12:31;7.28;;;6.07;;
55672;SDS011;41554;45.366;20.400;2023-06-26T14:14:58;10.60;;;6.57;;
55672;SDS011;41554;45.366;20.400;2023-06-26T14:17:24;9.40;;;6.53;;
55672;SDS011;41554;45.366;20.400;2023-06-26T14:19:51;13.45;;;6.13;;
55672;SDS011;41554;45.366;20.400;2023-06-26T14:22:17;8.70;;;5.60;;
55672;SDS011;41554;45.366;20.400;2023-06-26T14:24:43;16.42;;;6.13;;
55672;SDS011;41554;45.366;20.400;2023-06-26T14:27:09;18.77;;;6.65;;
55672;SDS011;41554;45.366;20.400;2023-06-26T14:29:36;9.90;;;6.60;;
55672;SDS011;41554;45.366;20.400;2023-06-26T14:32:02;9.65;;;6.45;;
55672;SDS011;41554;45.366;20.400;2023-06-26T14:34:28;11.07;;;6.05;;
55672;SDS011;41554;45.366;20.400;2023-06-26T14:36:55;7.18;;;6.15;;
55672;SDS011;41554;45.366;20.400;2023-06-26T14:39:21;7.68;;;6.05;;
55672;SDS011;41554;45.366;20.400;2023-06-26T14:41:48;8.13;;;6.65;;
55672;SDS011;41554;45.366;20.400;2023-06-26T14:44:14;7.28;;;5.55;;
55672;SDS011;41554;45.366;20.400;2023-06-26T14:46:40;10.57;;;5.05;;